createdAt,value
2019-05-25T00:00:03.346Z,996.38
2019-05-25T00:01:03.330Z,996.36
2019-05-25T00:02:03.359Z,996.31
2019-05-25T00:03:03.309Z,996.33
2019-05-25T00:04:03.302Z,996.32
2019-05-25T00:05:03.296Z,996.29
2019-05-25T00:06:03.289Z,996.32
2019-05-25T00:07:03.293Z,996.27
2019-05-25T00:08:03.265Z,996.28
2019-05-25T00:09:03.246Z,996.24
2019-05-25T00:10:03.259Z,996.32
2019-05-25T00:11:03.244Z,996.23
2019-05-25T00:12:03.243Z,996.17
2019-05-25T00:13:03.220Z,996.29
2019-05-25T00:14:03.223Z,996.20
2019-05-25T00:15:03.201Z,996.23
2019-05-25T00:16:03.165Z,996.18
2019-05-25T00:18:03.151Z,996.18
2019-05-25T00:19:03.249Z,996.17
2019-05-25T00:20:03.121Z,996.14
2019-05-25T00:21:03.122Z,996.12
2019-05-25T00:22:03.113Z,996.09
2019-05-25T00:23:03.099Z,996.05
2019-05-25T00:24:11.652Z,996.09
2019-05-25T00:25:04.131Z,996.02
2019-05-25T00:26:03.068Z,996.06
2019-05-25T00:27:03.049Z,995.97
2019-05-25T00:28:03.048Z,995.94
2019-05-25T00:29:03.028Z,995.93
2019-05-25T00:30:03.034Z,995.87
2019-05-25T00:31:03.020Z,995.88
2019-05-25T00:32:03.001Z,995.86
2019-05-25T00:33:02.987Z,995.89
2019-05-25T00:34:03.034Z,995.86
2019-05-25T00:35:02.982Z,995.84
2019-05-25T00:36:02.994Z,995.85
2019-05-25T00:37:02.956Z,995.87
2019-05-25T00:38:02.970Z,995.87
2019-05-25T00:39:02.942Z,995.82
2019-05-25T00:40:02.948Z,995.82
2019-05-25T00:41:02.932Z,995.83
2019-05-25T00:42:02.941Z,995.80
2019-05-25T00:43:02.900Z,995.74
2019-05-25T00:44:02.909Z,995.80
2019-05-25T00:45:02.892Z,995.73
2019-05-25T00:46:02.871Z,995.77
2019-05-25T00:47:02.854Z,995.85
2019-05-25T00:48:12.855Z,995.82
2019-05-25T00:49:02.832Z,995.79
2019-05-25T00:50:02.811Z,995.76
2019-05-25T00:51:02.823Z,995.72
2019-05-25T00:52:02.780Z,995.72
2019-05-25T00:53:02.770Z,995.72
2019-05-25T00:54:02.770Z,995.65
2019-05-25T00:55:02.768Z,995.68
2019-05-25T00:56:02.807Z,995.64
2019-05-25T00:57:02.729Z,995.63
2019-05-25T00:58:02.731Z,995.68
2019-05-25T00:59:02.724Z,995.64
2019-05-25T01:00:02.698Z,995.64
2019-05-25T01:01:02.701Z,995.65
2019-05-25T01:02:02.736Z,995.62
2019-05-25T01:03:02.668Z,995.55
2019-05-25T01:04:02.653Z,995.56
2019-05-25T01:05:02.654Z,995.50
2019-05-25T01:06:02.672Z,995.56
2019-05-25T01:07:02.659Z,995.53
2019-05-25T01:08:02.643Z,995.52
2019-05-25T01:09:02.622Z,995.57
2019-05-25T01:10:02.637Z,995.48
2019-05-25T01:11:02.602Z,995.44
2019-05-25T01:12:02.612Z,995.47
2019-05-25T01:13:02.560Z,995.49
2019-05-25T01:14:03.135Z,995.45
2019-05-25T01:15:02.559Z,995.46
2019-05-25T01:16:02.548Z,995.40
2019-05-25T01:17:02.523Z,995.41
2019-05-25T01:18:02.545Z,995.40
2019-05-25T01:19:12.952Z,995.43
2019-05-25T01:20:02.484Z,995.38
2019-05-25T01:21:02.484Z,995.36
2019-05-25T01:22:02.465Z,995.30
2019-05-25T01:23:02.463Z,995.38
2019-05-25T01:24:02.472Z,995.36
2019-05-25T01:25:02.430Z,995.37
2019-05-25T01:26:02.430Z,995.42
2019-05-25T01:27:02.423Z,995.41
2019-05-25T01:28:02.432Z,995.34
2019-05-25T01:29:02.432Z,995.34
2019-05-25T01:30:02.395Z,995.35
2019-05-25T01:31:02.379Z,995.32
2019-05-25T01:32:02.374Z,995.32
2019-05-25T01:33:02.370Z,995.27
2019-05-25T01:34:02.348Z,995.28
2019-05-25T01:35:02.363Z,995.30
2019-05-25T01:36:02.331Z,995.18
2019-05-25T01:37:02.916Z,995.19
2019-05-25T01:38:02.310Z,995.22
2019-05-25T01:39:02.318Z,995.23
2019-05-25T01:40:02.276Z,995.24
2019-05-25T01:41:02.279Z,995.21
2019-05-25T01:42:02.269Z,995.22
2019-05-25T01:43:02.251Z,995.23
2019-05-25T01:44:02.288Z,995.22
2019-05-25T01:45:02.225Z,995.20
2019-05-25T01:46:02.225Z,995.26
2019-05-25T01:47:02.218Z,995.16
2019-05-25T01:48:02.199Z,995.20
2019-05-25T01:49:02.186Z,995.18
2019-05-25T01:50:14.641Z,995.18
2019-05-25T01:51:02.168Z,995.17
2019-05-25T01:52:02.154Z,995.21
2019-05-25T01:53:02.131Z,995.20
2019-05-25T01:54:02.134Z,995.24
2019-05-25T01:55:02.121Z,995.20
2019-05-25T01:56:02.121Z,995.23
2019-05-25T01:57:02.112Z,995.22
2019-05-25T01:58:02.094Z,995.19
2019-05-25T01:59:02.074Z,995.23
2019-05-25T02:00:02.599Z,995.21
2019-05-25T02:01:02.062Z,995.18
2019-05-25T02:02:02.044Z,995.19
2019-05-25T02:03:02.140Z,995.15
2019-05-25T02:04:02.022Z,995.17
2019-05-25T02:05:02.093Z,995.19
2019-05-25T02:06:02.023Z,995.17
2019-05-25T02:07:01.995Z,995.15
2019-05-25T02:08:01.998Z,995.11
2019-05-25T02:09:01.989Z,995.12
2019-05-25T02:10:01.971Z,995.11
2019-05-25T02:11:02.009Z,995.13
2019-05-25T02:12:01.987Z,995.09
2019-05-25T02:13:01.928Z,995.09
2019-05-25T02:14:01.916Z,995.06
2019-05-25T02:15:01.920Z,995.03
2019-05-25T02:16:01.917Z,995.01
2019-05-25T02:17:01.908Z,995.05
2019-05-25T02:18:01.877Z,994.94
2019-05-25T02:19:01.872Z,994.93
2019-05-25T02:20:01.885Z,994.93
2019-05-25T02:21:12.413Z,994.98
2019-05-25T02:22:01.846Z,994.93
2019-05-25T02:23:01.840Z,994.90
2019-05-25T02:24:01.813Z,994.91
2019-05-25T02:25:16.244Z,994.97
2019-05-25T02:26:02.795Z,994.96
2019-05-25T02:27:01.790Z,994.96
2019-05-25T02:28:01.787Z,994.99
2019-05-25T02:29:01.753Z,994.96
2019-05-25T02:30:01.783Z,995.00
2019-05-25T02:31:01.738Z,995.01
2019-05-25T02:32:01.753Z,994.93
2019-05-25T02:33:01.763Z,994.94
2019-05-25T02:34:01.724Z,995.00
2019-05-25T02:35:01.708Z,994.96
2019-05-25T02:36:01.701Z,994.87
2019-05-25T02:37:01.696Z,994.92
2019-05-25T02:38:01.677Z,994.83
2019-05-25T02:39:01.711Z,994.89
2019-05-25T02:40:01.656Z,994.84
2019-05-25T02:41:01.660Z,994.85
2019-05-25T02:42:01.619Z,994.81
2019-05-25T02:43:01.619Z,994.86
2019-05-25T02:44:01.611Z,994.78
2019-05-25T02:45:01.611Z,994.79
2019-05-25T02:46:01.576Z,994.78
2019-05-25T02:47:01.574Z,994.82
2019-05-25T02:48:01.562Z,994.77
2019-05-25T02:49:01.537Z,994.73
2019-05-25T02:50:01.583Z,994.73
2019-05-25T02:51:01.529Z,994.77
2019-05-25T02:52:12.080Z,994.73
2019-05-25T02:53:01.512Z,994.73
2019-05-25T02:54:01.484Z,994.68
2019-05-25T02:55:01.477Z,994.71
2019-05-25T02:56:01.503Z,994.74
2019-05-25T02:57:01.462Z,994.67
2019-05-25T02:58:01.445Z,994.69
2019-05-25T02:59:01.458Z,994.66
2019-05-25T03:00:01.423Z,994.64
2019-05-25T03:01:01.426Z,994.65
2019-05-25T03:02:01.452Z,994.71
2019-05-25T03:03:01.425Z,994.73
2019-05-25T03:04:01.395Z,994.69
2019-05-25T03:05:01.389Z,994.70
2019-05-25T03:06:01.439Z,994.77
2019-05-25T03:07:01.361Z,994.69
2019-05-25T03:08:01.350Z,994.69
2019-05-25T03:09:01.344Z,994.61
2019-05-25T03:10:01.389Z,994.63
2019-05-25T03:11:01.324Z,994.61
2019-05-25T03:12:01.322Z,994.60
2019-05-25T03:13:01.314Z,994.59
2019-05-25T03:14:01.290Z,994.52
2019-05-25T03:15:01.385Z,994.52
2019-05-25T03:16:01.316Z,994.57
2019-05-25T03:17:01.359Z,994.49
2019-05-25T03:18:01.271Z,994.45
2019-05-25T03:19:01.249Z,994.48
2019-05-25T03:20:01.224Z,994.46
2019-05-25T03:21:01.220Z,994.46
2019-05-25T03:22:01.220Z,994.48
2019-05-25T03:23:11.646Z,994.53
2019-05-25T03:24:01.175Z,994.52
2019-05-25T03:25:01.154Z,994.51
2019-05-25T03:26:01.146Z,994.50
2019-05-25T03:27:01.155Z,994.50
2019-05-25T03:28:01.151Z,994.44
2019-05-25T03:29:01.177Z,994.45
2019-05-25T03:30:01.156Z,994.44
2019-05-25T03:31:01.105Z,994.43
2019-05-25T03:32:01.109Z,994.48
2019-05-25T03:33:01.114Z,994.49
2019-05-25T03:34:01.088Z,994.48
2019-05-25T03:35:01.070Z,994.45
2019-05-25T03:36:01.056Z,994.47
2019-05-25T03:37:01.040Z,994.44
2019-05-25T03:38:01.029Z,994.39
2019-05-25T03:39:01.036Z,994.40
2019-05-25T03:40:01.007Z,994.40
2019-05-25T03:41:01.004Z,994.46
2019-05-25T03:42:01.002Z,994.39
2019-05-25T03:43:00.992Z,994.34
2019-05-25T03:44:01.011Z,994.31
2019-05-25T03:45:00.948Z,994.30
2019-05-25T03:46:00.965Z,994.30
2019-05-25T03:47:00.964Z,994.33
2019-05-25T03:48:00.957Z,994.31
2019-05-25T03:49:00.932Z,994.38
2019-05-25T03:50:00.901Z,994.39
2019-05-25T03:51:00.881Z,994.33
2019-05-25T03:52:00.932Z,994.35
2019-05-25T03:53:00.874Z,994.29
2019-05-25T03:54:10.991Z,994.34
2019-05-25T03:55:00.891Z,994.28
2019-05-25T03:56:05.928Z,994.27
2019-05-25T03:57:01.821Z,994.32
2019-05-25T03:58:00.817Z,994.32
2019-05-25T03:59:00.822Z,994.34
2019-05-25T04:00:00.803Z,994.28
2019-05-25T04:01:00.789Z,994.30
2019-05-25T04:02:00.770Z,994.29
2019-05-25T04:03:00.771Z,994.31
2019-05-25T04:04:00.748Z,994.31
2019-05-25T04:05:00.746Z,994.37
2019-05-25T04:06:00.746Z,994.33
2019-05-25T04:07:00.735Z,994.34
2019-05-25T04:08:00.718Z,994.32
2019-05-25T04:09:00.719Z,994.29
2019-05-25T04:10:00.700Z,994.23
2019-05-25T04:11:00.675Z,994.28
2019-05-25T04:12:00.675Z,994.32
2019-05-25T04:13:00.667Z,994.22
2019-05-25T04:14:00.659Z,994.30
2019-05-25T04:15:00.638Z,994.23
2019-05-25T04:16:00.682Z,994.25
2019-05-25T04:17:00.614Z,994.17
2019-05-25T04:18:00.615Z,994.12
2019-05-25T04:19:00.594Z,994.20
2019-05-25T04:20:00.575Z,994.14
2019-05-25T04:21:00.591Z,994.11
2019-05-25T04:22:00.592Z,994.09
2019-05-25T04:23:00.563Z,994.05
2019-05-25T04:24:00.541Z,994.04
2019-05-25T04:25:10.641Z,994.07
2019-05-25T04:26:00.513Z,994.04
2019-05-25T04:27:00.512Z,994.13
2019-05-25T04:28:00.511Z,994.11
2019-05-25T04:29:00.481Z,994.05
2019-05-25T04:30:00.474Z,994.10
2019-05-25T04:31:00.470Z,994.10
2019-05-25T04:32:00.451Z,994.03
2019-05-25T04:33:00.481Z,994.04
2019-05-25T04:34:00.462Z,993.98
2019-05-25T04:35:00.525Z,993.98
2019-05-25T04:36:00.426Z,994.07
2019-05-25T04:37:00.480Z,994.06
2019-05-25T04:38:00.444Z,994.04
2019-05-25T04:39:00.391Z,994.09
2019-05-25T04:40:00.369Z,994.01
2019-05-25T04:41:00.389Z,994.05
2019-05-25T04:42:00.352Z,994.02
2019-05-25T04:43:00.361Z,994.04
2019-05-25T04:44:00.380Z,993.96
2019-05-25T04:45:00.341Z,993.98
2019-05-25T04:46:00.304Z,993.92
2019-05-25T04:47:00.320Z,993.97
2019-05-25T04:48:00.310Z,993.89
2019-05-25T04:49:00.271Z,993.94
2019-05-25T04:50:00.265Z,993.93
2019-05-25T04:51:00.292Z,993.95
2019-05-25T04:52:00.247Z,993.94
2019-05-25T04:53:00.261Z,993.89
2019-05-25T04:54:00.250Z,993.86
2019-05-25T04:55:00.237Z,993.89
2019-05-25T04:56:10.097Z,993.84
2019-05-25T04:57:00.184Z,993.89
2019-05-25T04:58:00.184Z,993.87
2019-05-25T04:59:00.175Z,993.87
2019-05-25T05:00:00.165Z,993.85
2019-05-25T05:01:00.190Z,993.81
2019-05-25T05:02:00.156Z,993.81
2019-05-25T05:03:00.176Z,993.77
2019-05-25T05:04:00.120Z,993.73
2019-05-25T05:05:00.112Z,993.70
2019-05-25T05:06:00.106Z,993.76
2019-05-25T05:07:00.134Z,993.75
2019-05-25T05:08:00.084Z,993.74
2019-05-25T05:09:00.098Z,993.74
2019-05-25T05:10:03.044Z,993.79
2019-05-25T05:11:00.065Z,993.76
2019-05-25T05:12:00.063Z,993.71
2019-05-25T05:13:00.025Z,993.82
2019-05-25T05:14:00.043Z,993.76
2019-05-25T05:15:00.013Z,993.71
2019-05-25T05:16:00.043Z,993.69
2019-05-25T05:16:59.983Z,993.70
2019-05-25T05:17:59.970Z,993.67
2019-05-25T05:18:59.963Z,993.71
2019-05-25T05:19:59.949Z,993.70
2019-05-25T05:21:00.440Z,993.68
2019-05-25T05:21:59.951Z,993.62
2019-05-25T05:22:59.929Z,993.63
2019-05-25T05:23:59.907Z,993.62
2019-05-25T05:24:59.918Z,993.57
2019-05-25T05:25:59.922Z,993.55
2019-05-25T05:27:10.455Z,993.51
2019-05-25T05:27:59.868Z,993.48
2019-05-25T05:28:59.853Z,993.46
2019-05-25T05:29:59.835Z,993.47
2019-05-25T05:30:59.850Z,993.54
2019-05-25T05:31:59.867Z,993.42
2019-05-25T05:32:59.816Z,993.41
2019-05-25T05:33:59.794Z,993.40
2019-05-25T05:34:59.800Z,993.45
2019-05-25T05:35:59.802Z,993.42
2019-05-25T05:36:59.801Z,993.37
2019-05-25T05:37:59.763Z,993.40
2019-05-25T05:38:59.765Z,993.36
2019-05-25T05:39:59.735Z,993.40
2019-05-25T05:40:59.733Z,993.36
2019-05-25T05:41:59.714Z,993.34
2019-05-25T05:42:59.713Z,993.40
2019-05-25T05:43:59.696Z,993.39
2019-05-25T05:44:59.686Z,993.40
2019-05-25T05:45:59.692Z,993.32
2019-05-25T05:46:59.795Z,993.36
2019-05-25T05:47:59.673Z,993.29
2019-05-25T05:48:59.645Z,993.29
2019-05-25T05:49:59.625Z,993.34
2019-05-25T05:50:59.642Z,993.31
2019-05-25T05:51:59.611Z,993.32
2019-05-25T05:52:59.622Z,993.37
2019-05-25T05:53:59.604Z,993.33
2019-05-25T05:54:59.593Z,993.33
2019-05-25T05:55:59.574Z,993.28
2019-05-25T05:57:11.706Z,993.31
2019-05-25T05:58:09.582Z,993.31
2019-05-25T05:58:59.585Z,993.36
2019-05-25T05:59:59.525Z,993.30
2019-05-25T06:00:59.506Z,993.34
2019-05-25T06:01:59.506Z,993.28
2019-05-25T06:02:59.496Z,993.31
2019-05-25T06:03:59.498Z,993.36
2019-05-25T06:04:59.483Z,993.38
2019-05-25T06:05:59.467Z,993.31
2019-05-25T06:06:59.444Z,993.34
2019-05-25T06:07:59.430Z,993.32
2019-05-25T06:08:59.434Z,993.22
2019-05-25T06:09:59.435Z,993.28
2019-05-25T06:10:59.415Z,993.21
2019-05-25T06:11:59.414Z,993.24
2019-05-25T06:12:59.373Z,993.10
2019-05-25T06:13:59.388Z,993.22
2019-05-25T06:14:59.413Z,993.14
2019-05-25T06:15:59.351Z,993.15
2019-05-25T06:16:59.360Z,993.18
2019-05-25T06:17:59.337Z,993.20
2019-05-25T06:18:59.329Z,993.17
2019-05-25T06:19:59.341Z,993.16
2019-05-25T06:20:59.313Z,993.19
2019-05-25T06:21:59.281Z,993.22
2019-05-25T06:22:59.314Z,993.10
2019-05-25T06:23:59.273Z,993.16
2019-05-25T06:24:59.260Z,993.15
2019-05-25T06:25:59.272Z,993.19
2019-05-25T06:26:59.283Z,993.13
2019-05-25T06:27:59.233Z,993.15
2019-05-25T06:29:09.449Z,993.09
2019-05-25T06:29:59.209Z,993.10
2019-05-25T06:30:59.217Z,993.12
2019-05-25T06:31:59.191Z,993.09
2019-05-25T06:32:59.187Z,993.14
2019-05-25T06:33:59.151Z,993.05
2019-05-25T06:34:59.147Z,993.13
2019-05-25T06:35:59.139Z,993.06
2019-05-25T06:36:59.152Z,993.06
2019-05-25T06:37:59.130Z,993.04
2019-05-25T06:38:59.107Z,993.06
2019-05-25T06:39:59.121Z,993.02
2019-05-25T06:40:59.080Z,993.09
2019-05-25T06:41:59.097Z,993.06
2019-05-25T06:42:59.048Z,993.00
2019-05-25T06:43:59.049Z,993.01
2019-05-25T06:44:59.029Z,992.99
2019-05-25T06:45:59.028Z,992.98
2019-05-25T06:46:59.028Z,992.93
2019-05-25T06:47:59.041Z,992.92
2019-05-25T06:48:58.991Z,992.93
2019-05-25T06:49:59.001Z,992.85
2019-05-25T06:50:58.972Z,992.89
2019-05-25T06:51:58.957Z,992.95
2019-05-25T06:52:58.986Z,992.94
2019-05-25T06:53:59.007Z,993.02
2019-05-25T06:54:58.926Z,993.02
2019-05-25T06:55:58.927Z,993.00
2019-05-25T06:56:58.928Z,992.96
2019-05-25T06:57:58.896Z,993.03
2019-05-25T06:58:58.896Z,993.09
2019-05-25T07:00:58.863Z,993.06
2019-05-25T07:01:58.854Z,993.04
2019-05-25T07:02:58.842Z,993.06
2019-05-25T07:03:58.822Z,993.05
2019-05-25T07:04:58.811Z,993.12
2019-05-25T07:05:58.835Z,993.11
2019-05-25T07:06:58.794Z,993.07
2019-05-25T07:07:58.781Z,992.96
2019-05-25T07:08:58.772Z,993.03
2019-05-25T07:09:58.780Z,992.90
2019-05-25T07:10:58.750Z,992.98
2019-05-25T07:11:58.752Z,992.96
2019-05-25T07:12:58.742Z,992.96
2019-05-25T07:13:58.735Z,993.01
2019-05-25T07:14:58.725Z,993.00
2019-05-25T07:15:58.786Z,993.02
2019-05-25T07:16:58.690Z,992.94
2019-05-25T07:17:58.683Z,993.04
2019-05-25T07:18:58.672Z,993.00
2019-05-25T07:19:58.650Z,992.98
2019-05-25T07:20:58.651Z,993.03
2019-05-25T07:21:58.643Z,992.94
2019-05-25T07:22:58.638Z,992.91
2019-05-25T07:23:58.610Z,992.94
2019-05-25T07:24:58.604Z,992.88
2019-05-25T07:25:58.642Z,992.92
2019-05-25T07:26:58.595Z,992.85
2019-05-25T07:28:00.259Z,992.86
2019-05-25T07:28:58.579Z,992.84
2019-05-25T07:29:58.548Z,992.79
2019-05-25T07:31:09.197Z,992.79
2019-05-25T07:32:58.539Z,992.79
2019-05-25T07:33:58.496Z,992.79
2019-05-25T07:34:58.487Z,992.76
2019-05-25T07:35:58.482Z,992.68
2019-05-25T07:36:58.479Z,992.68
2019-05-25T07:37:58.487Z,992.75
2019-05-25T07:38:58.499Z,992.67
2019-05-25T07:39:58.449Z,992.69
2019-05-25T07:40:58.437Z,992.67
2019-05-25T07:41:58.433Z,992.69
2019-05-25T07:42:58.419Z,992.62
2019-05-25T07:43:58.435Z,992.57
2019-05-25T07:44:58.406Z,992.62
2019-05-25T07:45:58.370Z,992.60
2019-05-25T07:46:58.364Z,992.64
2019-05-25T07:47:58.346Z,992.63
2019-05-25T07:48:58.355Z,992.63
2019-05-25T07:49:58.349Z,992.60
2019-05-25T07:50:58.314Z,992.56
2019-05-25T07:51:58.317Z,992.58
2019-05-25T07:52:58.322Z,992.51
2019-05-25T07:53:58.287Z,992.53
2019-05-25T07:54:58.306Z,992.49
2019-05-25T07:55:58.265Z,992.49
2019-05-25T07:56:58.266Z,992.46
2019-05-25T07:58:13.618Z,992.42
2019-05-25T07:58:59.226Z,992.50
2019-05-25T07:59:58.228Z,992.46
2019-05-25T08:00:58.291Z,992.44
2019-05-25T08:02:10.394Z,992.45
2019-05-25T08:03:58.195Z,992.38
2019-05-25T08:04:58.167Z,992.38
2019-05-25T08:05:58.154Z,992.35
2019-05-25T08:06:58.165Z,992.41
2019-05-25T08:07:58.158Z,992.37
2019-05-25T08:08:58.122Z,992.30
2019-05-25T08:09:58.119Z,992.34
2019-05-25T08:10:58.113Z,992.30
2019-05-25T08:11:58.095Z,992.26
2019-05-25T08:12:58.093Z,992.24
2019-05-25T08:13:58.102Z,992.21
2019-05-25T08:14:58.084Z,992.20
2019-05-25T08:15:58.111Z,992.27
2019-05-25T08:16:58.065Z,992.18
2019-05-25T08:17:58.041Z,992.18
2019-05-25T08:18:58.028Z,992.09
2019-05-25T08:19:58.004Z,992.11
2019-05-25T08:20:58.004Z,992.07
2019-05-25T08:21:57.991Z,992.10
2019-05-25T08:22:57.997Z,992.05
2019-05-25T08:23:57.975Z,992.09
2019-05-25T08:24:57.967Z,992.06
2019-05-25T08:25:57.972Z,992.07
2019-05-25T08:26:57.930Z,992.04
2019-05-25T08:27:57.954Z,992.04
2019-05-25T08:28:57.912Z,992.06
2019-05-25T08:29:57.940Z,992.04
2019-05-25T08:31:01.124Z,992.02
2019-05-25T08:31:57.901Z,992.06
2019-05-25T08:33:57.882Z,992.02
2019-05-25T08:34:57.856Z,992.01
2019-05-25T08:35:57.843Z,991.95
2019-05-25T08:36:57.821Z,991.97
2019-05-25T08:37:57.841Z,991.90
2019-05-25T08:38:57.806Z,991.93
2019-05-25T08:39:57.804Z,991.98
2019-05-25T08:40:57.796Z,991.98
2019-05-25T08:41:57.764Z,992.04
2019-05-25T08:42:57.782Z,992.05
2019-05-25T08:43:57.753Z,992.04
2019-05-25T08:44:57.740Z,992.07
2019-05-25T08:45:57.732Z,992.03
2019-05-25T08:46:57.724Z,992.05
2019-05-25T08:47:57.740Z,992.05
2019-05-25T08:48:57.701Z,992.10
2019-05-25T08:49:57.692Z,992.16
2019-05-25T08:50:59.670Z,992.17
2019-05-25T08:51:57.689Z,992.18
2019-05-25T08:52:57.681Z,992.21
2019-05-25T08:53:57.670Z,992.15
2019-05-25T08:54:57.644Z,992.14
2019-05-25T08:55:57.644Z,992.14
2019-05-25T08:56:57.611Z,992.05
2019-05-25T08:57:57.613Z,992.06
2019-05-25T08:58:57.644Z,992.09
2019-05-25T08:59:57.580Z,992.00
2019-05-25T09:00:57.582Z,992.00
2019-05-25T09:01:57.592Z,991.97
2019-05-25T09:02:57.563Z,991.93
2019-05-25T09:04:57.532Z,991.89
2019-05-25T09:05:57.521Z,991.88
2019-05-25T09:06:57.514Z,991.85
2019-05-25T09:07:57.499Z,991.90
2019-05-25T09:08:57.504Z,991.86
2019-05-25T09:09:57.533Z,991.85
2019-05-25T09:10:57.477Z,991.80
2019-05-25T09:11:57.465Z,991.79
2019-05-25T09:12:57.454Z,991.81
2019-05-25T09:13:57.444Z,991.82
2019-05-25T09:14:57.421Z,991.75
2019-05-25T09:15:57.433Z,991.74
2019-05-25T09:16:57.425Z,991.79
2019-05-25T09:17:57.417Z,991.82
2019-05-25T09:18:57.391Z,991.82
2019-05-25T09:19:57.384Z,991.85
2019-05-25T09:20:57.375Z,991.77
2019-05-25T09:22:02.482Z,991.82
2019-05-25T09:22:58.342Z,991.83
2019-05-25T09:23:57.322Z,991.73
2019-05-25T09:24:57.332Z,991.83
2019-05-25T09:25:57.374Z,991.83
2019-05-25T09:26:57.313Z,991.80
2019-05-25T09:27:57.302Z,991.74
2019-05-25T09:29:04.407Z,991.80
2019-05-25T09:29:58.261Z,991.80
2019-05-25T09:30:57.250Z,991.70
2019-05-25T09:31:57.282Z,991.74
2019-05-25T09:32:57.265Z,991.80
2019-05-25T09:33:57.222Z,991.71
2019-05-25T09:35:57.202Z,991.70
2019-05-25T09:36:57.181Z,991.71
2019-05-25T09:37:57.182Z,991.69
2019-05-25T09:38:57.171Z,991.69
2019-05-25T09:39:57.160Z,991.69
2019-05-25T09:40:57.152Z,991.64
2019-05-25T09:41:57.152Z,991.72
2019-05-25T09:42:57.146Z,991.69
2019-05-25T09:43:57.111Z,991.78
2019-05-25T09:44:57.102Z,991.71
2019-05-25T09:45:57.101Z,991.74
2019-05-25T09:46:57.094Z,991.67
2019-05-25T09:47:57.151Z,991.63
2019-05-25T09:48:57.051Z,991.64
2019-05-25T09:49:57.062Z,991.66
2019-05-25T09:50:57.040Z,991.58
2019-05-25T09:51:57.063Z,991.63
2019-05-25T09:52:57.067Z,991.62
2019-05-25T09:53:57.001Z,991.57
2019-05-25T09:54:56.998Z,991.58
2019-05-25T09:55:57.003Z,991.52
2019-05-25T09:56:56.985Z,991.49
2019-05-25T09:57:56.958Z,991.54
2019-05-25T09:58:56.971Z,991.47
2019-05-25T09:59:56.940Z,991.47
2019-05-25T10:00:56.930Z,991.43
2019-05-25T10:01:56.962Z,991.46
2019-05-25T10:02:56.960Z,991.45
2019-05-25T10:03:56.941Z,991.44
2019-05-25T10:04:56.887Z,991.45
2019-05-25T10:06:56.873Z,991.49
2019-05-25T10:07:56.851Z,991.52
2019-05-25T10:08:56.882Z,991.51
2019-05-25T10:09:56.840Z,991.46
2019-05-25T10:10:56.830Z,991.45
2019-05-25T10:11:56.825Z,991.51
2019-05-25T10:12:56.809Z,991.38
2019-05-25T10:13:56.799Z,991.38
2019-05-25T10:14:56.812Z,991.40
2019-05-25T10:15:56.794Z,991.35
2019-05-25T10:16:56.761Z,991.33
2019-05-25T10:17:56.762Z,991.32
2019-05-25T10:18:56.791Z,991.35
2019-05-25T10:19:56.737Z,991.33
2019-05-25T10:20:56.710Z,991.35
2019-05-25T10:21:59.400Z,991.29
2019-05-25T10:22:56.701Z,991.25
2019-05-25T10:23:56.679Z,991.30
2019-05-25T10:24:56.708Z,991.29
2019-05-25T10:25:56.675Z,991.23
2019-05-25T10:26:56.660Z,991.25
2019-05-25T10:27:56.636Z,991.24
2019-05-25T10:28:56.627Z,991.29
2019-05-25T10:29:56.691Z,991.26
2019-05-25T10:30:56.649Z,991.26
2019-05-25T10:31:56.597Z,991.30
2019-05-25T10:32:56.591Z,991.22
2019-05-25T10:33:56.586Z,991.23
2019-05-25T10:34:56.561Z,991.17
2019-05-25T10:35:56.674Z,991.18
2019-05-25T10:37:56.530Z,991.18
2019-05-25T10:38:56.530Z,991.25
2019-05-25T10:39:56.521Z,991.29
2019-05-25T10:40:58.511Z,991.26
2019-05-25T10:41:56.520Z,991.27
2019-05-25T10:42:56.501Z,991.29
2019-05-25T10:43:56.469Z,991.22
2019-05-25T10:44:56.470Z,991.22
2019-05-25T10:45:56.462Z,991.22
2019-05-25T10:46:56.492Z,991.20
2019-05-25T10:47:56.442Z,991.21
2019-05-25T10:48:56.421Z,991.26
2019-05-25T10:49:56.427Z,991.26
2019-05-25T10:50:56.400Z,991.24
2019-05-25T10:51:56.408Z,991.24
2019-05-25T10:52:56.420Z,991.19
2019-05-25T10:53:56.398Z,991.16
2019-05-25T10:54:56.375Z,991.17
2019-05-25T10:55:56.359Z,991.12
2019-05-25T10:56:56.326Z,991.17
2019-05-25T10:57:56.329Z,991.16
2019-05-25T10:58:56.405Z,991.20
2019-05-25T10:59:56.308Z,991.14
2019-05-25T11:00:56.323Z,991.14
2019-05-25T11:01:56.300Z,991.17
2019-05-25T11:02:56.263Z,991.18
2019-05-25T11:03:56.256Z,991.17
2019-05-25T11:04:56.286Z,991.18
2019-05-25T11:05:56.246Z,991.16
2019-05-25T11:06:56.213Z,991.10
2019-05-25T11:08:06.826Z,991.13
2019-05-25T11:08:56.218Z,991.09
2019-05-25T11:09:56.206Z,991.10
2019-05-25T11:10:56.215Z,991.05
2019-05-25T11:11:56.175Z,991.05
2019-05-25T11:12:56.151Z,991.09
2019-05-25T11:13:56.164Z,990.99
2019-05-25T11:14:56.149Z,990.99
2019-05-25T11:15:56.123Z,991.00
2019-05-25T11:16:56.711Z,990.94
2019-05-25T11:17:56.108Z,990.91
2019-05-25T11:18:56.118Z,990.90
2019-05-25T11:19:56.107Z,990.92
2019-05-25T11:20:56.103Z,990.81
2019-05-25T11:21:56.091Z,990.82
2019-05-25T11:22:56.060Z,990.77
2019-05-25T11:23:56.045Z,990.75
2019-05-25T11:24:56.073Z,990.81
2019-05-25T11:25:56.012Z,990.72
2019-05-25T11:26:59.568Z,990.73
2019-05-25T11:27:56.003Z,990.66
2019-05-25T11:28:56.003Z,990.64
2019-05-25T11:30:08.619Z,990.59
2019-05-25T11:30:56.984Z,990.59
2019-05-25T11:31:59.767Z,990.58
2019-05-25T11:32:56.931Z,990.59
2019-05-25T11:33:55.936Z,990.52
2019-05-25T11:34:55.931Z,990.48
2019-05-25T11:35:55.963Z,990.48
2019-05-25T11:36:56.000Z,990.45
2019-05-25T11:37:55.890Z,990.45
2019-05-25T11:39:55.889Z,990.47
2019-05-25T11:40:55.848Z,990.38
2019-05-25T11:41:55.864Z,990.35
2019-05-25T11:42:55.840Z,990.39
2019-05-25T11:43:55.831Z,990.38
2019-05-25T11:44:55.818Z,990.34
2019-05-25T11:45:55.824Z,990.32
2019-05-25T11:46:55.829Z,990.24
2019-05-25T11:47:55.780Z,990.29
2019-05-25T11:48:55.780Z,990.22
2019-05-25T11:49:55.759Z,990.20
2019-05-25T11:50:55.774Z,990.19
2019-05-25T11:51:55.740Z,990.24
2019-05-25T11:52:55.777Z,990.22
2019-05-25T11:53:55.729Z,990.13
2019-05-25T11:54:55.716Z,990.20
2019-05-25T11:55:55.699Z,990.13
2019-05-25T11:56:55.720Z,990.04
2019-05-25T11:57:55.716Z,990.09
2019-05-25T11:58:55.668Z,990.07
2019-05-25T11:59:55.705Z,990.07
2019-05-25T12:00:55.669Z,990.02
2019-05-25T12:01:55.645Z,990.09
2019-05-25T12:02:55.618Z,990.01
2019-05-25T12:03:55.649Z,990.05
2019-05-25T12:04:55.599Z,990.01
2019-05-25T12:05:55.602Z,990.04
2019-05-25T12:06:55.579Z,989.99
2019-05-25T12:07:55.588Z,990.00
2019-05-25T12:08:55.578Z,990.03
2019-05-25T12:10:55.551Z,990.03
2019-05-25T12:11:55.532Z,990.01
2019-05-25T12:12:55.517Z,990.08
2019-05-25T12:13:55.498Z,989.99
2019-05-25T12:14:55.492Z,990.01
2019-05-25T12:15:55.543Z,989.92
2019-05-25T12:16:55.471Z,989.98
2019-05-25T12:17:55.479Z,990.02
2019-05-25T12:18:55.482Z,989.94
2019-05-25T12:19:55.436Z,989.93
2019-05-25T12:20:55.427Z,989.96
2019-05-25T12:21:55.448Z,989.96
2019-05-25T12:22:55.432Z,989.97
2019-05-25T12:23:55.398Z,989.95
2019-05-25T12:24:55.398Z,990.01
2019-05-25T12:25:55.409Z,989.92
2019-05-25T12:26:55.369Z,989.92
2019-05-25T12:27:55.357Z,989.92
2019-05-25T12:28:55.370Z,989.91
2019-05-25T12:29:55.336Z,989.87
2019-05-25T12:30:55.340Z,989.86
2019-05-25T12:32:03.727Z,989.85
2019-05-25T12:32:56.329Z,989.95
2019-05-25T12:33:55.293Z,989.95
2019-05-25T12:34:55.277Z,989.93
2019-05-25T12:35:55.278Z,989.94
2019-05-25T12:36:55.274Z,989.95
2019-05-25T12:37:55.258Z,989.93
2019-05-25T12:38:55.233Z,989.86